createdAt,value
2019-05-11T00:03:05.797Z,1.40
2019-05-11T00:07:17.610Z,1.20
2019-05-11T00:11:29.296Z,1.13
2019-05-11T00:15:40.994Z,1.10
2019-05-11T00:19:52.796Z,1.40
2019-05-11T00:24:04.598Z,1.53
2019-05-11T00:28:17.304Z,1.37
2019-05-11T00:32:29.132Z,1.57
2019-05-11T00:36:40.925Z,1.37
2019-05-11T00:40:53.134Z,1.30
2019-05-11T00:45:05.198Z,1.70
2019-05-11T00:49:17.161Z,1.50
2019-05-11T00:53:29.046Z,1.83
2019-05-11T00:57:40.852Z,2.00
2019-05-11T01:01:52.463Z,2.00
2019-05-11T01:06:04.169Z,2.10
2019-05-11T01:10:25.692Z,2.30
2019-05-11T01:14:29.667Z,2.80
2019-05-11T01:18:41.495Z,2.10
2019-05-11T01:22:53.300Z,2.90
2019-05-11T01:27:05.405Z,3.10
2019-05-11T01:31:17.213Z,2.93
2019-05-11T01:35:28.805Z,2.67
2019-05-11T01:39:40.596Z,2.87
2019-05-11T01:43:52.401Z,3.00
2019-05-11T01:48:04.362Z,3.43
2019-05-11T01:52:16.309Z,3.10
2019-05-11T01:56:28.214Z,2.40
2019-05-11T02:00:40.019Z,2.83
2019-05-11T02:05:10.409Z,2.50
2019-05-11T02:09:22.088Z,2.00
2019-05-11T02:13:33.853Z,1.67
2019-05-11T02:17:45.913Z,2.43
2019-05-11T02:21:57.664Z,1.67
2019-05-11T02:26:09.468Z,2.10
2019-05-11T02:30:21.291Z,2.17
2019-05-11T02:34:33.061Z,1.70
2019-05-11T02:38:44.865Z,2.20
2019-05-11T02:42:56.669Z,2.03
2019-05-11T02:47:08.704Z,1.70
2019-05-11T02:51:21.356Z,2.03
2019-05-11T02:55:33.549Z,2.07
2019-05-11T02:59:46.332Z,2.30
2019-05-11T03:03:58.137Z,1.50
2019-05-11T03:08:10.136Z,1.23
2019-05-11T03:12:22.051Z,1.20
2019-05-11T03:16:33.654Z,1.63
2019-05-11T03:20:45.589Z,1.33
2019-05-11T03:24:57.341Z,1.20
2019-05-11T03:29:09.145Z,1.33
2019-05-11T03:33:20.952Z,1.00
2019-05-11T03:37:32.773Z,1.10
2019-05-11T03:41:44.465Z,1.30
2019-05-11T03:45:56.136Z,1.03
2019-05-11T03:50:08.479Z,1.30
2019-05-11T03:54:20.311Z,1.50
2019-05-11T03:58:32.058Z,1.13
2019-05-11T04:02:43.876Z,1.43
2019-05-11T04:06:55.664Z,1.00
2019-05-11T04:11:07.484Z,1.30
2019-05-11T04:15:19.475Z,1.70
2019-05-11T04:19:31.089Z,1.43
2019-05-11T04:23:42.846Z,1.53
2019-05-11T04:27:54.677Z,1.30
2019-05-11T04:32:06.474Z,1.40
2019-05-11T04:36:18.273Z,1.50
2019-05-11T04:40:29.885Z,1.83
2019-05-11T04:44:41.653Z,1.40
2019-05-11T04:48:53.469Z,1.90
2019-05-11T04:53:05.374Z,1.53
2019-05-11T04:57:17.224Z,1.97
2019-05-11T05:01:28.786Z,2.10
2019-05-11T05:05:40.454Z,2.57
2019-05-11T05:09:52.269Z,2.30
2019-05-11T05:14:08.296Z,2.60
2019-05-11T05:18:17.616Z,2.30
2019-05-11T05:22:29.234Z,2.63
2019-05-11T05:26:40.964Z,2.60
2019-05-11T05:30:52.712Z,2.37
2019-05-11T05:35:04.513Z,1.93
2019-05-11T05:39:16.321Z,1.90
2019-05-11T05:43:28.685Z,2.10
2019-05-11T05:47:40.542Z,1.73
2019-05-11T05:51:52.478Z,1.77
2019-05-11T05:56:04.348Z,2.03
2019-05-11T06:00:16.308Z,2.10
2019-05-11T06:04:27.953Z,1.73
2019-05-11T06:08:43.036Z,2.23
2019-05-11T06:12:53.078Z,2.23
2019-05-11T06:17:04.881Z,2.30
2019-05-11T06:21:16.680Z,2.93
2019-05-11T06:25:28.490Z,4.03
2019-05-11T06:29:40.357Z,5.40
2019-05-11T06:33:52.001Z,5.37
2019-05-11T06:38:03.690Z,5.77
2019-05-11T06:42:15.486Z,5.33
2019-05-11T06:46:27.393Z,5.43
2019-05-11T06:50:39.199Z,4.90
2019-05-11T06:54:51.202Z,4.97
2019-05-11T06:59:03.020Z,4.57
2019-05-11T07:03:14.672Z,4.10
2019-05-11T07:07:26.400Z,3.83
2019-05-11T07:11:38.202Z,3.33
2019-05-11T07:15:50.412Z,2.77
2019-05-11T07:20:02.212Z,2.57
2019-05-11T07:24:14.005Z,2.43
2019-05-11T07:28:25.820Z,2.40
2019-05-11T07:32:38.142Z,2.00
2019-05-11T07:36:50.133Z,1.60
2019-05-11T07:41:01.932Z,1.30
2019-05-11T07:45:13.937Z,1.37
2019-05-11T07:49:25.761Z,1.20
2019-05-11T07:53:38.058Z,1.20
2019-05-11T07:57:50.056Z,1.00
2019-05-11T08:02:01.870Z,1.07
2019-05-11T08:06:13.531Z,1.30
2019-05-11T08:10:28.135Z,1.50
2019-05-11T08:14:56.547Z,1.70
2019-05-11T08:18:53.781Z,1.90
2019-05-11T08:23:05.589Z,1.93
2019-05-11T08:27:18.669Z,1.80
2019-05-11T08:31:30.600Z,1.97
2019-05-11T08:35:42.484Z,2.30
2019-05-11T08:39:54.313Z,2.30
2019-05-11T08:44:06.120Z,2.17
2019-05-11T08:48:18.724Z,2.20
2019-05-11T08:52:31.055Z,1.97
2019-05-11T08:56:42.953Z,2.47
2019-05-11T09:00:54.760Z,2.20
2019-05-11T09:05:08.147Z,1.87
2019-05-11T09:09:20.362Z,2.00
2019-05-11T09:13:32.208Z,1.63
2019-05-11T09:17:44.005Z,1.43
2019-05-11T09:21:55.833Z,1.30
2019-05-11T09:26:08.711Z,1.90
2019-05-11T09:30:21.972Z,1.67
2019-05-11T09:34:33.876Z,1.80
2019-05-11T09:38:45.750Z,1.90
2019-05-11T09:42:58.457Z,1.73
2019-05-11T09:47:10.708Z,2.07
2019-05-11T09:51:22.511Z,1.60
2019-05-11T09:55:34.406Z,1.70
2019-05-11T09:59:47.805Z,1.67
2019-05-11T10:03:59.861Z,1.70
2019-05-11T10:08:11.684Z,1.70
2019-05-11T10:12:24.540Z,1.77
2019-05-11T10:16:38.443Z,1.50
2019-05-11T10:20:49.738Z,1.50
2019-05-11T10:25:01.341Z,1.57
2019-05-11T10:29:13.012Z,1.50
2019-05-11T10:33:24.880Z,1.97
2019-05-11T10:37:39.004Z,1.83
2019-05-11T10:41:51.787Z,1.57
2019-05-11T10:46:16.140Z,1.57
2019-05-11T10:50:18.742Z,1.30
2019-05-11T10:54:30.550Z,2.20
2019-05-11T10:58:42.388Z,1.93
2019-05-11T11:02:54.200Z,1.70
2019-05-11T11:07:07.729Z,1.53
2019-05-11T11:11:19.469Z,1.50
2019-05-11T11:15:31.284Z,1.30
2019-05-11T11:19:43.040Z,1.20
2019-05-11T11:23:54.636Z,1.27
2019-05-11T11:28:08.288Z,1.43
2019-05-11T11:32:19.970Z,1.40
2019-05-11T11:36:31.797Z,1.20
2019-05-11T11:40:43.602Z,1.53
2019-05-11T11:44:55.639Z,1.37
2019-05-11T11:49:08.261Z,1.60
2019-05-11T11:53:20.217Z,1.80
2019-05-11T11:57:32.112Z,1.60
2019-05-11T12:01:43.913Z,1.60
2019-05-11T12:05:58.012Z,1.40
2019-05-11T12:10:09.869Z,1.60
2019-05-11T12:14:21.927Z,1.57
2019-05-11T12:18:33.831Z,1.37
2019-05-11T12:22:47.485Z,1.60
2019-05-11T12:26:59.136Z,1.60
2019-05-11T12:31:10.741Z,1.77
2019-05-11T12:35:23.073Z,1.63
2019-05-11T12:39:34.820Z,2.00
2019-05-11T12:43:48.857Z,2.10
2019-05-11T12:48:00.435Z,2.33
2019-05-11T12:52:12.387Z,1.53
2019-05-11T12:56:24.338Z,1.30
2019-05-11T13:00:38.892Z,1.33
2019-05-11T13:04:49.637Z,1.33
2019-05-11T13:09:01.455Z,1.50
2019-05-11T13:13:13.048Z,1.60
2019-05-11T13:17:36.563Z,1.67
2019-05-11T13:21:38.555Z,1.70
2019-05-11T13:25:50.833Z,1.20
2019-05-11T13:30:02.588Z,1.43
2019-05-11T13:34:14.493Z,1.50
2019-05-11T13:38:28.300Z,1.70
2019-05-11T13:42:40.400Z,1.53
2019-05-11T13:46:52.236Z,2.43
2019-05-11T13:51:04.313Z,1.70
2019-05-11T13:55:18.227Z,1.10
2019-05-11T13:59:29.961Z,1.03
2019-05-11T14:03:41.808Z,1.30
2019-05-11T14:07:53.620Z,1.10
2019-05-11T14:12:07.584Z,1.30
2019-05-11T14:16:18.807Z,1.00
2019-05-11T14:20:30.641Z,1.27
2019-05-11T14:24:42.606Z,1.30
2019-05-11T14:28:55.402Z,1.20
2019-05-11T14:33:08.682Z,1.07
2019-05-11T14:37:20.407Z,1.37
2019-05-11T14:41:32.217Z,1.17
2019-05-11T14:45:44.024Z,1.20
2019-05-11T14:49:57.831Z,1.10
2019-05-11T14:54:09.432Z,1.00
2019-05-11T14:58:21.578Z,1.00
2019-05-11T15:02:50.054Z,1.27
2019-05-11T15:07:02.990Z,1.20
2019-05-11T15:11:14.948Z,1.30
2019-05-11T15:15:27.902Z,1.10
2019-05-11T15:19:39.747Z,1.30
2019-05-11T15:23:51.432Z,1.10
2019-05-11T15:28:03.282Z,1.17
2019-05-11T15:32:17.781Z,1.40
2019-05-11T15:36:29.384Z,1.10
2019-05-11T15:40:41.409Z,1.00
2019-05-11T15:44:53.376Z,1.30
2019-05-11T15:49:05.395Z,0.83
2019-05-11T15:53:17.990Z,1.00
2019-05-11T15:57:30.126Z,0.83
2019-05-11T16:01:42.153Z,1.03
2019-05-11T16:05:54.014Z,1.20
2019-05-11T16:10:08.085Z,1.27
2019-05-11T16:14:19.836Z,0.93
2019-05-11T16:18:31.878Z,0.93
2019-05-11T16:22:43.915Z,0.77
2019-05-11T16:26:58.083Z,0.60
2019-05-11T16:31:09.442Z,0.97
2019-05-11T16:35:21.472Z,0.87
2019-05-11T16:39:34.313Z,1.00
2019-05-11T16:43:47.961Z,0.80
2019-05-11T16:47:59.408Z,0.80
2019-05-11T16:52:11.429Z,0.90
2019-05-11T16:56:23.332Z,0.73
2019-05-11T17:00:35.308Z,1.00
2019-05-11T17:04:47.971Z,0.80
2019-05-11T17:08:59.745Z,0.83
2019-05-11T17:13:11.561Z,0.90
2019-05-11T17:17:23.364Z,1.10
2019-05-11T17:21:37.760Z,1.10
2019-05-11T17:25:48.699Z,0.70
2019-05-11T17:30:00.533Z,1.10
2019-05-11T17:34:12.248Z,1.00
2019-05-11T17:38:24.004Z,1.30
2019-05-11T17:42:37.338Z,1.00
2019-05-11T17:46:49.241Z,1.27
2019-05-11T17:51:01.062Z,1.30
2019-05-11T17:55:12.765Z,1.83
2019-05-11T17:59:24.573Z,1.70
2019-05-11T18:03:38.268Z,1.63
2019-05-11T18:07:49.791Z,1.63
2019-05-11T18:12:01.588Z,1.73
2019-05-11T18:16:13.397Z,1.50
2019-05-11T18:20:25.242Z,1.50
2019-05-11T18:24:38.322Z,1.30
2019-05-11T18:28:51.453Z,1.23
2019-05-11T18:33:03.343Z,0.93
2019-05-11T18:37:15.156Z,1.30
2019-05-11T18:41:28.265Z,0.90
2019-05-11T18:45:40.124Z,1.30
2019-05-11T18:49:51.901Z,0.77
2019-05-11T18:54:03.697Z,0.90
2019-05-11T18:58:18.157Z,0.87
2019-05-11T19:02:29.245Z,1.20
2019-05-11T19:06:41.101Z,1.00
2019-05-11T19:10:53.049Z,1.20
2019-05-11T19:15:05.060Z,0.83
2019-05-11T19:19:18.346Z,1.30
2019-05-11T19:23:30.408Z,1.07
2019-05-11T19:27:42.007Z,0.90
2019-05-11T19:31:53.697Z,0.93
2019-05-11T19:36:07.764Z,1.07
2019-05-11T19:40:20.061Z,1.30
2019-05-11T19:44:31.673Z,0.97
2019-05-11T19:48:43.352Z,1.30
2019-05-11T19:52:55.154Z,1.80
2019-05-11T19:57:08.321Z,1.30
2019-05-11T20:01:20.538Z,1.60
2019-05-11T20:05:32.612Z,1.80
2019-05-11T20:09:44.600Z,1.53
2019-05-11T20:13:58.781Z,1.60
2019-05-11T20:18:09.546Z,1.17
2019-05-11T20:22:21.368Z,1.33
2019-05-11T20:26:33.144Z,1.30
2019-05-11T20:30:45.048Z,1.60
2019-05-11T20:34:57.866Z,1.23
2019-05-11T20:39:09.835Z,1.43
2019-05-11T20:43:21.586Z,1.23
2019-05-11T20:47:33.380Z,1.40
2019-05-11T20:51:45.185Z,1.37
2019-05-11T20:55:58.235Z,1.00
2019-05-11T21:00:10.663Z,1.50
2019-05-11T21:04:22.244Z,1.33
2019-05-11T21:08:34.029Z,1.60
2019-05-11T21:12:45.880Z,1.33
2019-05-11T21:16:58.907Z,1.50
2019-05-11T21:21:10.779Z,1.60
2019-05-11T21:25:22.373Z,1.00
2019-05-11T21:29:34.065Z,1.27
2019-05-11T21:33:45.908Z,1.77
2019-05-11T21:37:58.708Z,1.87
2019-05-11T21:42:10.348Z,1.83
2019-05-11T21:46:22.183Z,2.40
2019-05-11T21:50:33.980Z,2.20
2019-05-11T21:54:45.779Z,2.40
2019-05-11T21:58:57.796Z,2.63
2019-05-11T22:03:10.289Z,2.67
2019-05-11T22:07:23.317Z,2.87
2019-05-11T22:11:37.909Z,2.77
2019-05-11T22:15:48.793Z,2.73
2019-05-11T22:20:00.708Z,2.83
2019-05-11T22:24:12.305Z,3.00
2019-05-11T22:28:23.990Z,2.77
2019-05-11T22:32:38.056Z,2.30
2019-05-11T22:36:50.254Z,2.90
2019-05-11T22:41:03.155Z,3.00
2019-05-11T22:45:15.334Z,3.07
2019-05-11T22:49:28.548Z,2.70
2019-05-11T22:53:47.133Z,2.73
2019-05-11T22:57:53.856Z,3.20
2019-05-11T23:02:07.677Z,3.47
2019-05-11T23:06:18.882Z,3.80
2019-05-11T23:10:30.702Z,3.33
2019-05-11T23:14:42.749Z,3.60
2019-05-11T23:18:54.500Z,3.57
2019-05-11T23:23:08.457Z,4.13
2019-05-11T23:27:20.417Z,3.77
2019-05-11T23:31:32.996Z,3.70
2019-05-11T23:35:44.681Z,2.90
2019-05-11T23:39:58.422Z,2.90
2019-05-11T23:44:09.919Z,3.47
2019-05-11T23:48:21.769Z,3.47
2019-05-11T23:52:33.334Z,4.17
2019-05-11T23:56:45.013Z,4.07
